Time;durP1;ratioP1;P1;durP2;ratioP2;P2;SDS_P1;SDS_P2;PMS_P1;PMS_P2;Temp;Humidity;BMP_temperature;BMP_pressure;BME280_temperature;BME280_humidity;BME280_pressure;Samples;Min_cycle;Max_cycle;Signal;HPM_P1;HPM_P2
2022/11/08 00:01:59;;;;;;;31.00;18.87;;;;;;;8.03;100.00;100920.31;1469486;87;22277;-79
2022/11/08 00:04:25;;;;;;;32.70;18.60;;;;;;;8.03;100.00;100919.00;1475368;88;21352;-79
2022/11/08 00:15:08;;;;;;;53.67;19.20;;;;;;;8.12;100.00;100923.55;1471469;88;21544;-80
2022/11/08 00:17:34;;;;;;;36.10;15.87;;;;;;;8.16;100.00;100927.26;1449967;90;21553;-78
2022/11/08 00:20:00;;;;;;;70.10;18.83;;;;;;;8.14;100.00;100929.55;1472442;88;21455;-79
2022/11/08 00:22:30;;;;;;;32.67;18.00;;;;;;;8.11;100.00;100929.79;1480832;88;21361;-79
2022/11/08 00:24:57;;;;;;;35.97;16.43;;;;;;;8.10;100.00;100930.72;1469146;88;22402;-79
2022/11/08 00:27:24;;;;;;;36.87;17.63;;;;;;;8.09;100.00;100931.70;1479951;88;22262;-78
2022/11/08 00:29:51;;;;;;;32.37;15.97;;;;;;;8.06;100.00;100934.57;1471695;88;21360;-78
2022/11/08 00:32:21;;;;;;;29.87;15.73;;;;;;;8.04;100.00;100932.52;1476824;87;21381;-79
2022/11/08 00:34:48;;;;;;;35.45;16.48;;;;;;;8.07;100.00;100932.77;1466434;87;21300;-78
2022/11/08 00:37:16;;;;;;;26.13;16.27;;;;;;;8.07;100.00;100930.13;1466598;88;21337;-79
2022/11/08 00:39:42;;;;;;;32.83;17.17;;;;;;;8.04;100.00;100933.84;1474298;88;21197;-79
2022/11/08 00:42:08;;;;;;;45.90;18.23;;;;;;;8.02;100.00;100930.48;1475094;87;22254;-78
2022/11/08 00:44:35;;;;;;;48.40;18.03;;;;;;;8.01;100.00;100932.77;1482829;87;21419;-78
2022/11/08 00:47:01;;;;;;;44.63;18.37;;;;;;;7.95;100.00;100931.92;1457672;88;21588;-79
2022/11/08 00:49:27;;;;;;;36.53;16.83;;;;;;;7.91;100.00;100927.83;1461507;88;21382;-79
2022/11/08 00:51:53;;;;;;;44.73;17.00;;;;;;;7.90;100.00;100927.48;1466631;87;21456;-79
2022/11/08 00:54:20;;;;;;;32.20;17.60;;;;;;;7.90;100.00;100926.16;1478626;88;22388;-79
2022/11/08 00:56:49;;;;;;;27.77;17.30;;;;;;;7.91;100.00;100926.52;1474805;88;21487;-79
2022/11/08 00:59:17;;;;;;;24.17;17.60;;;;;;;7.93;100.00;100925.09;1459247;88;21419;-79
2022/11/08 01:01:45;;;;;;;25.53;17.57;;;;;;;7.99;100.00;100926.77;1472840;88;21345;-79
2022/11/08 01:04:14;;;;;;;27.17;17.87;;;;;;;8.04;100.00;100935.64;1471282;88;21398;-79
2022/11/08 01:06:40;;;;;;;24.87;18.03;;;;;;;8.04;100.00;100933.84;1472981;88;21610;-80
2022/11/08 01:09:07;;;;;;;35.33;17.10;;;;;;;8.07;100.00;100944.15;1469826;88;22342;-79
2022/11/08 01:11:33;;;;;;;32.60;18.57;;;;;;;8.12;100.00;100945.13;1470632;87;21537;-79
2022/11/08 01:14:01;;;;;;;60.50;18.90;;;;;;;8.17;100.00;100946.06;1473750;87;21353;-79
2022/11/08 01:16:31;;;;;;;54.20;18.37;;;;;;;8.13;100.00;100948.94;1475327;88;21265;-79
2022/11/08 01:18:58;;;;;;;28.80;19.10;;;;;;;8.14;100.00;100948.45;1471691;88;21630;-78
2022/11/08 01:21:26;;;;;;;38.43;20.30;;;;;;;8.11;100.00;100948.70;1471565;88;21258;-78
2022/11/08 01:23:53;;;;;;;22.53;15.97;;;;;;;8.07;100.00;100946.78;1464666;88;21309;-78
2022/11/08 01:26:27;;;;;;;30.53;18.67;;;;;;;8.00;100.00;100950.87;1469532;87;21330;-78
2022/11/08 01:28:55;;;;;;;25.70;18.43;;;;;;;8.02;100.00;100956.00;1477116;88;21352;-78
2022/11/08 01:31:25;;;;;;;33.77;19.47;;;;;;;8.02;100.00;100954.20;1458157;88;21534;-78
2022/11/08 01:33:52;;;;;;;28.92;19.20;;;;;;;7.97;100.00;100952.88;1473930;88;22283;-77
2022/11/08 01:36:24;;;;;;;27.00;18.17;;;;;;;7.97;100.00;100955.06;1482271;88;21507;-79
2022/11/08 01:38:52;;;;;;;39.03;21.40;;;;;;;7.97;100.00;100954.19;1472061;88;21345;-78
2022/11/08 01:41:20;;;;;;;34.03;21.20;;;;;;;7.95;100.00;100952.17;1473576;88;21345;-79
2022/11/08 01:43:59;;;;;;;39.87;19.10;;;;;;;7.96;100.00;100952.05;1475932;88;21326;-77
2022/11/08 01:46:44;;;;;;;27.50;18.87;;;;;;;7.98;100.00;100948.81;1472474;88;21317;-76
2022/11/08 01:49:34;;;;;;;27.20;18.80;;;;;;;8.01;100.00;100947.27;1457903;88;21322;-77
2022/11/08 01:52:17;;;;;;;29.20;18.50;;;;;;;8.01;100.00;100943.30;1438958;91;22409;-77
2022/11/08 01:54:52;;;;;;;30.07;19.90;;;;;;;8.04;100.00;100944.39;1464042;88;21434;-77
2022/11/08 01:57:23;;;;;;;26.07;18.33;;;;;;;8.07;100.00;100942.83;1476425;88;22276;-78
2022/11/08 01:59:52;;;;;;;37.83;17.53;;;;;;;8.08;100.00;100942.34;1472762;88;21507;-77
2022/11/08 02:02:19;;;;;;;43.30;19.07;;;;;;;8.10;100.00;100939.95;1472171;87;21359;-78
2022/11/08 02:04:47;;;;;;;33.53;17.87;;;;;;;8.09;100.00;100939.61;1474218;88;21323;-77
2022/11/08 02:07:15;;;;;;;30.00;16.87;;;;;;;8.09;100.00;100936.97;1463480;88;21301;-77
2022/11/08 02:09:45;;;;;;;27.27;18.77;;;;;;;8.11;100.00;100936.38;1471422;88;21418;-77
2022/11/08 02:12:12;;;;;;;27.20;19.20;;;;;;;8.16;100.00;100937.80;1467288;87;22254;-75
2022/11/08 02:14:39;;;;;;;23.47;16.80;;;;;;;8.15;100.00;100936.97;1472771;88;22254;-75
2022/11/08 02:17:06;;;;;;;30.40;18.77;;;;;;;8.17;100.00;100939.47;1477545;88;21293;-75
2022/11/08 02:19:44;;;;;;;35.00;17.97;;;;;;;8.19;100.00;100933.61;1473512;88;21381;-75
2022/11/08 02:22:30;;;;;;;26.90;17.77;;;;;;;8.19;100.00;100934.93;1473119;88;22313;-75
2022/11/08 02:24:57;;;;;;;29.27;19.03;;;;;;;8.19;100.00;100938.88;1457141;88;22499;-75
2022/11/08 02:27:24;;;;;;;26.70;19.00;;;;;;;8.20;100.00;100932.19;1470953;88;21375;-76
2022/11/08 02:29:55;;;;;;;27.30;18.80;;;;;;;8.18;100.00;100929.30;1462814;87;21359;-75
2022/11/08 02:32:22;;;;;;;25.32;18.55;;;;;;;8.19;100.00;100934.93;1472948;87;22180;-76
2022/11/08 02:34:52;;;;;;;29.13;18.53;;;;;;;8.23;100.00;100933.72;1469840;87;21278;-75
2022/11/08 02:37:20;;;;;;;36.90;19.75;;;;;;;8.21;100.00;100933.02;1454958;88;21486;-75
2022/11/08 02:39:47;;;;;;;31.80;19.77;;;;;;;8.18;100.00;100934.58;1467512;88;21376;-74
2022/11/08 02:42:20;;;;;;;26.33;19.03;;;;;;;8.15;100.00;100927.75;1472554;88;21344;-76
2022/11/08 02:44:47;;;;;;;22.83;16.33;;;;;;;8.14;100.00;100928.68;1473980;87;21369;-75
2022/11/08 02:47:14;;;;;;;23.33;16.83;;;;;;;8.09;100.00;100932.18;1476293;88;21278;-73
2022/11/08 02:49:40;;;;;;;25.97;17.67;;;;;;;8.08;100.00;100936.59;1458546;88;21515;-75
2022/11/08 02:52:06;;;;;;;30.83;18.63;;;;;;;8.10;100.00;100933.36;1467282;88;21441;-76
2022/11/08 02:54:32;;;;;;;29.33;17.60;;;;;;;8.10;100.00;100936.00;1478972;87;21345;-77
2022/11/08 02:56:58;;;;;;;25.17;17.93;;;;;;;8.09;100.00;100938.29;1466433;88;21412;-77
2022/11/08 02:59:25;;;;;;;35.40;17.13;;;;;;;8.07;100.00;100941.52;1466798;88;21264;-77
2022/11/08 03:01:51;;;;;;;24.43;18.20;;;;;;;8.02;100.00;100942.83;1467285;88;22439;-77
2022/11/08 03:04:17;;;;;;;23.80;16.93;;;;;;;8.00;100.00;100946.05;1473203;87;21581;-78
2022/11/08 03:06:44;;;;;;;22.33;16.73;;;;;;;7.97;100.00;100939.24;1473755;88;21404;-77
2022/11/08 03:09:10;;;;;;;19.00;14.60;;;;;;;7.96;100.00;100932.27;1468650;87;22232;-78
2022/11/08 03:11:36;;;;;;;20.97;15.17;;;;;;;7.97;100.00;100944.52;1475387;88;21338;-77
2022/11/08 03:14:03;;;;;;;18.70;14.57;;;;;;;7.97;100.00;100945.84;1464179;87;21256;-77
2022/11/08 03:16:30;;;;;;;20.60;15.00;;;;;;;7.94;100.00;100952.66;1471384;87;21945;-78
2022/11/08 03:18:56;;;;;;;23.47;16.60;;;;;;;7.94;100.00;100952.66;1476506;88;21323;-77
2022/11/08 03:21:22;;;;;;;21.70;16.10;;;;;;;7.94;100.00;100956.61;1473976;87;21338;-77
2022/11/08 03:23:48;;;;;;;29.23;18.73;;;;;;;7.91;100.00;100963.41;1476746;87;21322;-78
2022/11/08 03:26:14;;;;;;;22.13;17.13;;;;;;;7.89;100.00;100970.62;1467470;87;21301;-77
2022/11/08 03:28:40;;;;;;;21.70;15.70;;;;;;;7.84;100.00;100967.48;1461014;88;21404;-77
2022/11/08 03:31:06;;;;;;;21.13;14.70;;;;;;;7.79;100.00;100969.63;1472141;87;21968;-78
2022/11/08 03:33:32;;;;;;;21.17;14.33;;;;;;;7.74;100.00;100967.36;1466461;87;22395;-77
2022/11/08 03:35:58;;;;;;;25.63;15.67;;;;;;;7.75;100.00;100972.14;1473954;88;21352;-78
2022/11/08 03:38:24;;;;;;;20.93;15.27;;;;;;;7.73;100.00;100974.05;1472351;87;21374;-78
2022/11/08 03:40:50;;;;;;;23.33;16.00;;;;;;;7.69;100.00;100983.50;1475132;87;21382;-78
2022/11/08 03:43:16;;;;;;;25.13;17.63;;;;;;;7.69;100.00;100990.09;1471351;88;21323;-78
2022/11/08 03:45:45;;;;;;;24.67;16.90;;;;;;;7.66;100.00;100985.05;1477918;88;21359;-78
2022/11/08 03:48:11;;;;;;;20.43;16.10;;;;;;;7.63;100.00;100982.64;1473802;88;21300;-77
2022/11/08 03:50:37;;;;;;;20.80;15.70;;;;;;;7.63;100.00;100982.64;1472358;87;21418;-79
2022/11/08 03:53:03;;;;;;;18.33;14.73;;;;;;;7.59;100.00;100981.17;1477212;88;21345;-78
2022/11/08 03:55:29;;;;;;;21.47;16.80;;;;;;;7.55;100.00;100974.47;1480707;88;22452;-78
2022/11/08 03:57:55;;;;;;;24.50;16.70;;;;;;;7.57;100.00;100980.95;1471081;87;21493;-78
2022/11/08 04:00:26;;;;;;;19.73;15.30;;;;;;;7.59;100.00;100977.22;1469139;88;21507;-78
2022/11/08 04:02:54;;;;;;;20.90;16.52;;;;;;;7.60;100.00;100977.61;1467606;88;21551;-78
2022/11/08 04:05:20;;;;;;;26.13;17.37;;;;;;;7.61;100.00;100978.44;1474179;88;21358;-78
2022/11/08 04:07:46;;;;;;;22.10;16.53;;;;;;;7.63;100.00;100969.95;1477763;88;21338;-77
2022/11/08 04:10:13;;;;;;;20.53;14.80;;;;;;;7.62;100.00;100964.30;1475021;87;21569;-77
2022/11/08 04:15:30;;;;;;;18.23;13.63;;;;;;;7.61;100.00;100968.73;1470492;88;21382;-77
2022/11/08 04:23:35;;;;;;;21.27;14.65;;;;;;;7.57;100.00;100973.89;1466012;88;21389;-78
2022/11/08 04:26:07;;;;;;;18.97;14.87;;;;;;;7.58;100.00;100979.98;1477805;88;22152;-78
2022/11/08 04:28:36;;;;;;;24.37;17.07;;;;;;;7.53;100.00;100977.69;1479820;87;21633;-78
2022/11/08 04:31:10;;;;;;;16.33;12.93;;;;;;;7.52;100.00;100976.50;1466482;88;21410;-78
2022/11/08 04:33:36;;;;;;;19.53;14.17;;;;;;;7.51;100.00;100978.30;1468341;88;22300;-78
2022/11/08 04:36:06;;;;;;;19.93;14.80;;;;;;;7.51;100.00;100974.80;1467913;88;21323;-77
2022/11/08 04:38:32;;;;;;;30.80;18.20;;;;;;;7.51;100.00;100973.03;1473076;88;22122;-78
2022/11/08 04:41:06;;;;;;;23.10;17.70;;;;;;;7.51;100.00;100978.30;1473157;87;21316;-76
2022/11/08 04:43:33;;;;;;;22.47;17.03;;;;;;;7.51;100.00;100975.67;1474073;88;21448;-77
2022/11/08 04:46:04;;;;;;;23.07;16.03;;;;;;;7.52;100.00;100981.29;1479890;88;21404;-77
2022/11/08 04:48:31;;;;;;;22.95;17.20;;;;;;;7.52;100.00;100974.70;1477854;88;22070;-77
2022/11/08 04:51:08;;;;;;;22.90;16.53;;;;;;;7.52;100.00;100975.19;1469065;88;21478;-77
2022/11/08 04:53:35;;;;;;;18.67;14.47;;;;;;;7.45;100.00;100973.02;1466166;88;21905;-77
2022/11/08 04:56:08;;;;;;;19.77;14.00;;;;;;;7.43;100.00;100980.66;1469074;88;22283;-77
2022/11/08 04:58:37;;;;;;;18.53;14.70;;;;;;;7.40;100.00;100985.67;1477838;88;21805;-78
2022/11/08 05:01:06;;;;;;;25.07;15.80;;;;;;;7.39;100.00;100976.55;1476651;88;21324;-77
2022/11/08 05:03:33;;;;;;;36.10;22.13;;;;;;;7.42;100.00;100976.33;1469116;88;21484;-77
2022/11/08 05:06:06;;;;;;;23.20;14.83;;;;;;;7.39;100.00;100979.19;1471380;88;21419;-77
2022/11/08 05:08:33;;;;;;;21.13;13.87;;;;;;;7.40;100.00;100983.52;1478703;88;21381;-76
2022/11/08 05:11:12;;;;;;;22.53;15.37;;;;;;;7.36;100.00;100982.88;1477429;88;21367;-77
2022/11/08 05:13:39;;;;;;;34.47;15.57;;;;;;;7.34;100.00;100987.93;1455141;90;21367;-77
2022/11/08 05:16:09;;;;;;;20.67;14.40;;;;;;;7.29;100.00;100988.73;1467025;88;21367;-77
2022/11/08 05:18:36;;;;;;;19.65;15.63;;;;;;;7.26;100.00;100983.22;1473982;88;21500;-77
2022/11/08 05:23:50;;;;;;;20.53;14.30;;;;;;;7.27;100.00;100987.52;1480807;88;22225;-79
2022/11/08 05:26:17;;;;;;;21.87;15.50;;;;;;;7.28;100.00;100987.03;1481321;87;21338;-76
2022/11/08 05:28:43;;;;;;;19.93;15.47;;;;;;;7.30;100.00;100989.92;1478172;88;22320;-78
2022/11/08 05:31:10;;;;;;;20.93;13.47;;;;;;;7.33;100.00;100999.39;1469597;88;21658;-80
2022/11/08 05:33:37;;;;;;;20.73;14.27;;;;;;;7.33;100.00;100994.96;1475612;87;21271;-80
2022/11/08 05:36:07;;;;;;;20.90;14.10;;;;;;;7.33;100.00;100998.08;1467432;88;21361;-79
2022/11/08 05:38:34;;;;;;;25.17;13.50;;;;;;;7.32;100.00;100993.30;1475010;88;21389;-80
2022/11/08 05:41:05;;;;;;;25.77;14.67;;;;;;;7.19;100.00;100997.31;1473724;88;21356;-79
2022/11/08 05:43:31;;;;;;;18.60;15.10;;;;;;;7.11;100.00;101000.14;1471814;88;21345;-79
2022/11/08 05:45:57;;;;;;;17.17;13.77;;;;;;;7.08;100.00;101001.65;1471700;88;21463;-79
2022/11/08 05:48:24;;;;;;;18.13;13.80;;;;;;;7.10;100.00;101008.97;1479494;88;21309;-79
2022/11/08 05:50:50;;;;;;;17.47;13.60;;;;;;;7.12;100.00;101011.02;1460685;88;21466;-79
2022/11/08 05:53:16;;;;;;;19.73;13.43;;;;;;;7.14;100.00;101007.33;1464173;88;21370;-78
2022/11/08 05:55:42;;;;;;;23.30;13.67;;;;;;;7.18;100.00;101003.52;1467709;88;21433;-79
2022/11/08 05:58:08;;;;;;;20.63;12.87;;;;;;;7.20;100.00;101000.30;1455741;88;21450;-79
2022/11/08 06:00:35;;;;;;;18.67;13.30;;;;;;;7.19;100.00;101012.25;1453768;88;21264;-79
2022/11/08 06:03:03;;;;;;;19.30;13.23;;;;;;;7.09;100.00;101010.77;1477003;88;21337;-80
2022/11/08 06:05:29;;;;;;;20.03;13.10;;;;;;;6.98;100.00;101011.53;1473770;88;22283;-79
2022/11/08 06:07:55;;;;;;;16.13;13.03;;;;;;;6.99;100.00;101017.63;1456391;88;21404;-79
2022/11/08 06:10:22;;;;;;;16.67;13.37;;;;;;;6.98;100.00;101018.59;1473352;87;21493;-79
2022/11/08 06:12:48;;;;;;;16.73;13.37;;;;;;;6.97;100.00;101019.07;1465330;88;22107;-79
2022/11/08 06:15:14;;;;;;;22.27;13.03;;;;;;;7.02;100.00;101024.02;1477168;88;21316;-79
2022/11/08 06:17:40;;;;;;;19.50;12.80;;;;;;;7.04;100.00;101025.20;1478150;88;21323;-78
2022/11/08 06:20:10;;;;;;;19.20;13.13;;;;;;;7.06;100.00;101023.31;1471089;88;21360;-79
2022/11/08 06:22:36;;;;;;;26.57;15.80;;;;;;;7.03;100.00;101021.73;1461459;88;21338;-78
2022/11/08 06:25:03;;;;;;;22.93;13.30;;;;;;;6.91;100.00;101022.15;1470744;88;21426;-79
2022/11/08 06:27:29;;;;;;;21.60;13.73;;;;;;;6.91;100.00;101017.36;1457651;88;21508;-78
2022/11/08 06:29:56;;;;;;;23.90;14.47;;;;;;;6.92;100.00;101022.50;1474426;88;21463;-79
2022/11/08 06:32:22;;;;;;;17.90;12.87;;;;;;;6.92;100.00;101019.03;1474040;88;21353;-79
2022/11/08 06:34:48;;;;;;;15.60;12.57;;;;;;;6.96;100.00;101024.43;1478830;88;21353;-78
2022/11/08 06:37:15;;;;;;;18.50;12.33;;;;;;;6.99;100.00;101030.34;1471432;88;22343;-79
2022/11/08 06:39:43;;;;;;;15.83;12.17;;;;;;;7.03;100.00;101027.00;1469569;88;21529;-79
2022/11/08 06:42:09;;;;;;;18.00;14.20;;;;;;;7.08;100.00;101028.84;1471343;88;21478;-79
2022/11/08 06:44:36;;;;;;;23.27;13.63;;;;;;;7.12;100.00;101029.45;1467102;87;21344;-78
2022/11/08 06:47:02;;;;;;;29.77;14.57;;;;;;;7.12;100.00;101027.66;1450828;88;21383;-79
2022/11/08 06:49:28;;;;;;;24.07;15.13;;;;;;;7.10;100.00;101030.86;1470137;88;21293;-79
2022/11/08 06:51:54;;;;;;;22.27;15.80;;;;;;;7.12;100.00;101035.55;1461788;88;22320;-79
2022/11/08 06:54:20;;;;;;;21.33;14.77;;;;;;;7.18;100.00;101037.73;1472089;88;21279;-79
2022/11/08 06:56:46;;;;;;;23.10;15.43;;;;;;;7.26;100.00;101044.25;1480666;87;21301;-79
2022/11/08 06:59:12;;;;;;;21.07;15.87;;;;;;;7.29;100.00;101042.72;1467555;88;21374;-78
2022/11/08 07:01:38;;;;;;;17.70;13.50;;;;;;;7.28;100.00;101042.33;1474881;88;22823;-79
2022/11/08 07:04:05;;;;;;;22.33;15.20;;;;;;;7.29;100.00;101046.66;1480791;87;21316;-79
2022/11/08 07:06:31;;;;;;;30.87;15.67;;;;;;;7.33;100.00;101044.16;1469779;88;21322;-78
2022/11/08 07:08:57;;;;;;;19.40;15.00;;;;;;;7.37;100.00;101042.52;1474830;87;21323;-78
2022/11/08 07:11:23;;;;;;;26.47;14.17;;;;;;;7.40;100.00;101039.66;1470264;88;22239;-78
2022/11/08 07:13:49;;;;;;;21.67;15.10;;;;;;;7.44;100.00;101046.38;1476385;88;21366;-80
2022/11/08 07:16:15;;;;;;;22.77;14.83;;;;;;;7.50;100.00;101046.87;1471588;88;22226;-78
2022/11/08 07:18:41;;;;;;;19.13;14.37;;;;;;;7.55;100.00;101041.64;1478147;87;21316;-75
2022/11/08 07:21:07;;;;;;;18.23;13.70;;;;;;;7.62;100.00;101044.20;1470861;87;23226;-76
2022/11/08 07:23:33;;;;;;;22.50;14.93;;;;;;;7.67;100.00;101051.75;1466950;87;21535;-76
2022/11/08 07:26:04;;;;;;;21.17;14.20;;;;;;;7.67;100.00;101060.48;1456051;90;21446;-76
2022/11/08 07:28:30;;;;;;;22.40;15.60;;;;;;;7.67;100.00;101059.17;1464199;88;21337;-77
2022/11/08 07:31:00;;;;;;;20.77;16.60;;;;;;;7.62;100.00;101067.91;1476779;88;21455;-76
2022/11/08 07:33:27;;;;;;;29.67;20.27;;;;;;;7.60;100.00;101064.55;1461707;87;21381;-77
2022/11/08 07:35:53;;;;;;;38.57;28.70;;;;;;;7.66;100.00;101065.89;1473967;87;22394;-75
2022/11/08 07:38:20;;;;;;;31.27;22.20;;;;;;;7.69;100.00;101063.02;1473332;88;21411;-77
2022/11/08 07:40:46;;;;;;;29.90;22.80;;;;;;;7.76;100.00;101064.72;1437482;88;21285;-76
2022/11/08 07:43:13;;;;;;;24.17;18.33;;;;;;;7.71;100.00;101061.58;1471578;88;21375;-77
2022/11/08 07:45:40;;;;;;;22.03;16.67;;;;;;;7.77;100.00;101072.52;1469297;87;21360;-77
2022/11/08 07:48:10;;;;;;;21.90;15.43;;;;;;;7.85;100.00;101067.98;1445156;87;21315;-77
2022/11/08 07:50:36;;;;;;;23.00;16.03;;;;;;;7.90;100.00;101068.48;1472042;87;22159;-78
2022/11/08 07:53:02;;;;;;;24.67;15.83;;;;;;;7.99;100.00;101065.16;1471051;87;21485;-77
2022/11/08 07:55:28;;;;;;;23.53;16.90;;;;;;;8.05;100.00;101067.32;1467837;88;21374;-77
2022/11/08 07:58:01;;;;;;;24.57;17.57;;;;;;;8.07;100.00;101067.22;1468811;88;21382;-77
2022/11/08 08:00:30;;;;;;;21.03;15.27;;;;;;;8.10;100.00;101070.45;1470414;88;21559;-77
2022/11/08 08:03:01;;;;;;;21.67;14.70;;;;;;;8.11;100.00;101070.84;1463090;88;21411;-76
2022/11/08 08:05:31;;;;;;;23.00;16.73;;;;;;;8.19;100.00;101069.41;1555075;88;21316;-77
2022/11/08 08:08:09;;;;;;;20.97;16.33;;;;;;;8.32;100.00;101077.59;1516730;88;21450;-82
2022/11/08 08:10:36;;;;;;;24.03;17.43;;;;;;;8.45;100.00;101074.88;1459847;88;21470;-81
2022/11/08 08:13:05;;;;;;;26.00;18.00;;;;;;;8.54;100.00;101086.52;1460297;88;21336;-83
2022/11/08 08:15:32;;;;;;;25.67;17.10;;;;;;;8.61;100.00;101078.98;1457768;87;21508;-82
2022/11/08 08:18:03;;;;;;;26.57;18.80;;;;;;;8.72;100.00;101075.03;1478936;88;21651;-83
2022/11/08 08:20:30;;;;;;;26.27;18.30;;;;;;;8.76;100.00;101085.21;1466233;88;22615;-82
2022/11/08 08:22:57;;;;;;;27.77;18.67;;;;;;;8.80;100.00;101092.41;1455276;88;21566;-85
2022/11/08 08:25:23;;;;;;;27.53;18.47;;;;;;;8.75;100.00;101089.31;1465938;88;21396;-82
2022/11/08 08:27:56;;;;;;;23.43;17.03;;;;;;;8.82;100.00;101083.89;1458869;88;21609;-82
2022/11/08 08:30:24;;;;;;;25.57;18.50;;;;;;;8.91;100.00;101081.84;1476822;88;21359;-83
2022/11/08 08:33:13;;;;;;;28.23;19.50;;;;;;;9.08;100.00;101086.28;1460950;88;21433;-82
2022/11/08 08:35:42;;;;;;;30.23;20.07;;;;;;;9.22;100.00;101082.89;1471169;87;21345;-83
2022/11/08 08:38:11;;;;;;;40.37;21.10;;;;;;;9.33;100.00;101085.17;1467300;88;21410;-82
2022/11/08 08:40:38;;;;;;;47.63;28.30;;;;;;;9.37;100.00;101084.78;1469566;88;22519;-83
2022/11/08 08:43:05;;;;;;;32.90;21.47;;;;;;;9.35;100.00;101084.09;1473278;88;21511;-82
2022/11/08 08:45:33;;;;;;;29.47;19.70;;;;;;;9.32;100.00;101089.62;1471504;88;21471;-81
2022/11/08 08:48:00;;;;;;;29.07;20.23;;;;;;;9.20;97.68;101096.70;1467745;88;21320;-84
2022/11/08 08:50:30;;;;;;;28.20;20.00;;;;;;;9.11;97.75;101090.83;1475547;87;21515;-83
2022/11/08 08:52:59;;;;;;;25.17;18.23;;;;;;;9.12;98.92;101096.95;1474251;88;21507;-82
2022/11/08 08:55:26;;;;;;;32.20;20.60;;;;;;;9.19;99.72;101094.20;1453168;88;21529;-83
2022/11/08 08:57:53;;;;;;;32.37;20.87;;;;;;;9.34;100.00;101090.80;1467984;88;21329;-83
2022/11/08 09:00:19;;;;;;;33.87;20.10;;;;;;;9.47;100.00;101092.34;1471072;87;22403;-83
2022/11/08 09:02:46;;;;;;;31.57;21.87;;;;;;;9.57;100.00;101095.06;1473375;88;22253;-84
2022/11/08 09:05:13;;;;;;;30.40;21.00;;;;;;;9.65;100.00;101095.77;1469164;87;21596;-82
2022/11/08 09:07:40;;;;;;;29.47;20.40;;;;;;;9.70;99.58;101100.20;1469606;88;22290;-83
2022/11/08 09:10:09;;;;;;;27.43;19.13;;;;;;;9.75;99.55;101102.45;1463382;88;21470;-82
2022/11/08 09:12:36;;;;;;;28.83;20.93;;;;;;;9.76;99.21;101097.05;1476609;87;21396;-84
2022/11/08 09:15:04;;;;;;;30.17;19.43;;;;;;;9.83;99.52;101098.70;1450226;87;21345;-83
2022/11/08 09:17:30;;;;;;;29.63;19.83;;;;;;;9.87;98.48;101098.33;1475711;88;22357;-83
2022/11/08 09:19:56;;;;;;;29.50;19.43;;;;;;;9.93;98.53;101096.50;1457217;88;21985;-83
2022/11/08 09:22:22;;;;;;;27.40;20.83;;;;;;;9.99;98.36;101091.67;1466398;88;21352;-83
2022/11/08 09:24:48;;;;;;;33.37;22.00;;;;;;;9.99;97.16;101099.13;1470421;88;21403;-83
2022/11/08 09:27:14;;;;;;;31.37;21.23;;;;;;;9.96;96.29;101102.02;1475867;87;21353;-84
2022/11/08 09:29:40;;;;;;;32.70;19.90;;;;;;;9.97;96.67;101098.89;1469619;88;21322;-82
2022/11/08 09:32:07;;;;;;;32.17;19.93;;;;;;;10.04;97.05;101090.78;1455007;88;21403;-82
2022/11/08 09:34:33;;;;;;;27.07;19.40;;;;;;;10.19;97.68;101090.84;1471524;88;21351;-83
2022/11/08 09:36:59;;;;;;;28.03;19.07;;;;;;;10.30;96.11;101085.98;1471863;87;22423;-84
2022/11/08 09:39:24;;;;;;;32.47;19.27;;;;;;;10.31;94.05;101089.84;1473151;88;21396;-81
2022/11/08 09:42:33;;;;;;;29.03;19.80;;;;;;;10.41;94.67;101094.34;1472139;88;21389;-83
2022/11/08 09:45:10;;;;;;;31.77;19.73;;;;;;;10.47;93.62;101096.46;1449466;90;22180;-83
2022/11/08 09:47:40;;;;;;;26.10;17.90;;;;;;;10.52;93.20;101091.63;1450804;89;22312;-83
2022/11/08 09:50:17;;;;;;;28.67;20.80;;;;;;;10.56;93.04;101089.09;1453242;89;21396;-83
2022/11/08 09:52:52;;;;;;;27.33;19.30;;;;;;;10.59;92.81;101088.33;1453953;89;21449;-84
2022/11/08 09:55:30;;;;;;;32.40;20.43;;;;;;;10.58;92.57;101084.48;1463796;88;22167;-82
2022/11/08 09:58:24;;;;;;;26.13;19.30;;;;;;;10.58;92.91;101084.48;1464175;88;21507;-83
2022/11/08 10:00:50;;;;;;;31.53;19.70;;;;;;;10.64;91.51;101095.86;1468226;88;21367;-84
2022/11/08 10:03:17;;;;;;;27.60;20.10;;;;;;;10.72;92.66;101096.04;1466459;87;22365;-83
2022/11/08 10:06:21;;;;;;;30.17;20.83;;;;;;;10.68;88.45;101093.32;1460388;88;21484;-85
2022/11/08 10:09:31;;;;;;;34.77;23.53;;;;;;;10.64;89.41;101091.89;1473077;88;21609;-83
2022/11/08 10:12:37;;;;;;;31.50;22.50;;;;;;;10.57;89.76;101088.11;1456188;88;21502;-84
2022/11/08 10:15:52;;;;;;;27.30;18.83;;;;;;;10.53;89.94;101079.59;1446022;90;21354;-83
2022/11/08 10:18:55;;;;;;;35.77;21.67;;;;;;;10.51;90.69;101085.98;1450017;90;21422;-83
2022/11/08 10:21:51;;;;;;;26.60;18.40;;;;;;;10.54;91.12;101082.58;1448833;90;22175;-85
2022/11/08 10:25:02;;;;;;;31.73;21.60;;;;;;;10.64;91.44;101077.33;1458615;88;21463;-85
2022/11/08 10:27:41;;;;;;;29.47;21.10;;;;;;;10.63;89.74;101079.63;1452807;87;21457;-83
2022/11/08 10:30:25;;;;;;;30.00;21.73;;;;;;;10.59;88.80;101074.27;1449902;88;21390;-84
2022/11/08 10:32:54;;;;;;;33.83;22.60;;;;;;;10.54;88.70;101072.00;1460142;88;21391;-84
2022/11/08 10:35:35;;;;;;;34.63;23.97;;;;;;;10.57;89.22;101073.55;1461162;88;22261;-85
2022/11/08 10:38:04;;;;;;;32.03;24.37;;;;;;;10.64;90.08;101072.03;1482512;87;21504;-81
2022/11/08 10:40:40;;;;;;;32.47;23.90;;;;;;;10.62;88.49;101072.67;1453015;88;21456;-81
2022/11/08 10:43:20;;;;;;;31.13;23.40;;;;;;;10.61;88.05;101068.33;1446725;89;21524;-81
2022/11/08 10:45:46;;;;;;;33.53;22.73;;;;;;;10.59;87.71;101071.61;1450998;90;21575;-82
2022/11/08 10:48:18;;;;;;;32.07;22.03;;;;;;;10.60;88.04;101071.95;1455179;89;22529;-81
2022/11/08 10:50:49;;;;;;;37.57;24.90;;;;;;;10.58;87.45;101070.75;1449458;90;21435;-82
2022/11/08 10:53:21;;;;;;;34.00;23.90;;;;;;;10.59;88.12;101072.45;1458117;90;22565;-80
2022/11/08 10:56:01;;;;;;;33.57;23.77;;;;;;;10.65;88.63;101071.08;1458879;88;22379;-82
2022/11/08 10:58:38;;;;;;;30.43;20.65;;;;;;;10.71;88.80;101062.61;1461994;88;21462;-84
2022/11/08 11:01:21;;;;;;;33.87;22.33;;;;;;;10.76;88.30;101066.16;1465064;88;22308;-84
2022/11/08 11:03:50;;;;;;;31.97;20.67;;;;;;;10.78;88.06;101066.38;1469074;88;21344;-83
2022/11/08 11:06:29;;;;;;;28.67;19.37;;;;;;;10.83;88.46;101068.64;1471309;88;21485;-84
2022/11/08 11:09:00;;;;;;;27.83;18.80;;;;;;;10.82;88.22;101061.69;1454427;88;22511;-82
2022/11/08 11:11:37;;;;;;;31.87;19.52;;;;;;;10.86;87.73;101059.59;1467145;87;21396;-84
2022/11/08 11:14:20;;;;;;;27.00;19.83;;;;;;;10.94;87.87;101067.72;1473529;87;23434;-84
2022/11/08 11:16:56;;;;;;;25.47;19.13;;;;;;;11.01;86.60;101066.19;1461182;89;22143;-82
2022/11/08 11:19:25;;;;;;;25.40;18.97;;;;;;;11.04;86.74;101064.59;1458342;89;21940;-84
2022/11/08 11:21:59;;;;;;;28.73;22.20;;;;;;;11.11;85.38;101067.07;1445421;89;21451;-83
2022/11/08 11:24:25;;;;;;;33.53;23.80;;;;;;;10.98;84.06;101059.84;1448526;89;21415;-83
2022/11/08 11:27:06;;;;;;;31.43;21.73;;;;;;;10.87;84.59;101066.06;1451761;87;21451;-82
2022/11/08 11:29:37;;;;;;;26.20;18.60;;;;;;;10.86;85.32;101068.86;1453932;89;22196;-83
2022/11/08 11:32:33;;;;;;;28.25;19.57;;;;;;;10.86;85.59;101057.78;1434274;89;21423;-84
2022/11/08 11:35:04;;;;;;;29.50;20.00;;;;;;;10.93;85.58;101061.55;1472552;86;21716;-84
2022/11/08 11:37:45;;;;;;;30.48;19.90;;;;;;;10.87;82.67;101064.74;1445393;88;21950;-83
2022/11/08 11:40:36;;;;;;;38.53;20.87;;;;;;;11.01;84.28;101062.22;1413550;91;21318;-83
2022/11/08 11:43:35;;;;;;;30.82;22.27;;;;;;;11.16;85.15;101067.47;1456545;88;21361;-85